sensor_id;sensor_type;location;lat;lon;timestamp;P1;durP1;ratioP1;P2;durP2;ratioP2
37545;SDS011;23389;52.484;13.572;2023-03-01T00:01:53;45.10;;;28.25;;
37545;SDS011;23389;52.484;13.572;2023-03-01T00:04:18;43.60;;;26.93;;
37545;SDS011;23389;52.484;13.572;2023-03-01T00:06:43;42.92;;;27.10;;
37545;SDS011;23389;52.484;13.572;2023-03-01T00:09:13;48.37;;;29.70;;
37545;SDS011;23389;52.484;13.572;2023-03-01T00:11:38;43.10;;;27.52;;
37545;SDS011;23389;52.484;13.572;2023-03-01T00:14:03;46.17;;;28.08;;
37545;SDS011;23389;52.484;13.572;2023-03-01T00:16:32;43.40;;;27.23;;
37545;SDS011;23389;52.484;13.572;2023-03-01T00:18:58;45.67;;;28.10;;
37545;SDS011;23389;52.484;13.572;2023-03-01T00:21:24;42.70;;;26.92;;
37545;SDS011;23389;52.484;13.572;2023-03-01T00:23:50;45.70;;;27.63;;
37545;SDS011;23389;52.484;13.572;2023-03-01T00:26:16;44.88;;;27.60;;
37545;SDS011;23389;52.484;13.572;2023-03-01T00:28:41;45.35;;;26.50;;
37545;SDS011;23389;52.484;13.572;2023-03-01T00:31:07;43.27;;;27.27;;
37545;SDS011;23389;52.484;13.572;2023-03-01T00:33:32;47.45;;;27.30;;
37545;SDS011;23389;52.484;13.572;2023-03-01T00:35:58;48.40;;;27.92;;
37545;SDS011;23389;52.484;13.572;2023-03-01T00:38:23;43.58;;;26.90;;
37545;SDS011;23389;52.484;13.572;2023-03-01T00:40:49;46.53;;;28.63;;
37545;SDS011;23389;52.484;13.572;2023-03-01T00:43:14;48.45;;;28.65;;
37545;SDS011;23389;52.484;13.572;2023-03-01T00:45:39;46.08;;;28.95;;
37545;SDS011;23389;52.484;13.572;2023-03-01T00:48:04;46.08;;;28.20;;
37545;SDS011;23389;52.484;13.572;2023-03-01T00:50:30;48.20;;;29.17;;
37545;SDS011;23389;52.484;13.572;2023-03-01T00:52:55;46.63;;;28.08;;
37545;SDS011;23389;52.484;13.572;2023-03-01T00:55:21;43.78;;;29.20;;
37545;SDS011;23389;52.484;13.572;2023-03-01T00:57:46;48.42;;;30.02;;
37545;SDS011;23389;52.484;13.572;2023-03-01T01:00:11;56.30;;;32.38;;
37545;SDS011;23389;52.484;13.572;2023-03-01T01:02:36;62.42;;;35.78;;
37545;SDS011;23389;52.484;13.572;2023-03-01T01:05:01;56.38;;;32.92;;
37545;SDS011;23389;52.484;13.572;2023-03-01T01:07:26;55.40;;;31.70;;
37545;SDS011;23389;52.484;13.572;2023-03-01T01:09:52;60.73;;;33.07;;
37545;SDS011;23389;52.484;13.572;2023-03-01T01:12:17;55.77;;;32.37;;
37545;SDS011;23389;52.484;13.572;2023-03-01T01:14:42;55.63;;;33.92;;
37545;SDS011;23389;52.484;13.572;2023-03-01T01:17:07;59.38;;;34.45;;
37545;SDS011;23389;52.484;13.572;2023-03-01T01:19:32;55.63;;;32.67;;
37545;SDS011;23389;52.484;13.572;2023-03-01T01:21:57;57.55;;;32.58;;
37545;SDS011;23389;52.484;13.572;2023-03-01T01:24:22;55.33;;;32.93;;
37545;SDS011;23389;52.484;13.572;2023-03-01T01:26:47;50.90;;;30.58;;
37545;SDS011;23389;52.484;13.572;2023-03-01T01:29:13;55.42;;;31.90;;
37545;SDS011;23389;52.484;13.572;2023-03-01T01:31:38;56.33;;;32.97;;
37545;SDS011;23389;52.484;13.572;2023-03-01T01:34:04;54.47;;;31.45;;
37545;SDS011;23389;52.484;13.572;2023-03-01T01:36:30;54.55;;;31.73;;
37545;SDS011;23389;52.484;13.572;2023-03-01T01:38:55;59.42;;;34.10;;
37545;SDS011;23389;52.484;13.572;2023-03-01T01:41:21;52.03;;;31.33;;
37545;SDS011;23389;52.484;13.572;2023-03-01T01:43:47;57.38;;;32.13;;
37545;SDS011;23389;52.484;13.572;2023-03-01T01:46:20;57.80;;;31.23;;
37545;SDS011;23389;52.484;13.572;2023-03-01T01:48:48;53.20;;;30.73;;
37545;SDS011;23389;52.484;13.572;2023-03-01T01:51:17;60.13;;;32.72;;
37545;SDS011;23389;52.484;13.572;2023-03-01T01:56:08;58.20;;;31.38;;
37545;SDS011;23389;52.484;13.572;2023-03-01T01:58:36;55.55;;;30.83;;
37545;SDS011;23389;52.484;13.572;2023-03-01T02:01:02;52.03;;;31.67;;
37545;SDS011;23389;52.484;13.572;2023-03-01T02:03:29;53.95;;;29.98;;
37545;SDS011;23389;52.484;13.572;2023-03-01T02:06:00;48.08;;;28.65;;
37545;SDS011;23389;52.484;13.572;2023-03-01T02:08:28;46.35;;;28.30;;
37545;SDS011;23389;52.484;13.572;2023-03-01T02:10:55;45.75;;;27.42;;
37545;SDS011;23389;52.484;13.572;2023-03-01T02:13:21;45.45;;;28.27;;
37545;SDS011;23389;52.484;13.572;2023-03-01T02:15:46;48.47;;;27.05;;
37545;SDS011;23389;52.484;13.572;2023-03-01T02:18:12;45.90;;;26.50;;
37545;SDS011;23389;52.484;13.572;2023-03-01T02:20:55;43.58;;;25.83;;
37545;SDS011;23389;52.484;13.572;2023-03-01T02:23:23;45.28;;;26.42;;
37545;SDS011;23389;52.484;13.572;2023-03-01T02:26:00;48.00;;;26.95;;
37545;SDS011;23389;52.484;13.572;2023-03-01T02:28:30;49.13;;;26.83;;
37545;SDS011;23389;52.484;13.572;2023-03-01T02:30:55;43.88;;;26.48;;
37545;SDS011;23389;52.484;13.572;2023-03-01T02:33:39;47.08;;;28.73;;
37545;SDS011;23389;52.484;13.572;2023-03-01T02:39:00;44.15;;;25.70;;
37545;SDS011;23389;52.484;13.572;2023-03-01T02:41:26;44.63;;;25.55;;
37545;SDS011;23389;52.484;13.572;2023-03-01T02:43:53;43.88;;;26.23;;
37545;SDS011;23389;52.484;13.572;2023-03-01T02:46:19;41.87;;;26.00;;
37545;SDS011;23389;52.484;13.572;2023-03-01T02:48:48;36.95;;;20.60;;
37545;SDS011;23389;52.484;13.572;2023-03-01T02:51:23;38.28;;;24.23;;
37545;SDS011;23389;52.484;13.572;2023-03-01T02:53:59;42.65;;;25.20;;
37545;SDS011;23389;52.484;13.572;2023-03-01T02:56:29;40.03;;;24.25;;
37545;SDS011;23389;52.484;13.572;2023-03-01T02:58:55;41.95;;;25.00;;
37545;SDS011;23389;52.484;13.572;2023-03-01T03:01:25;42.72;;;25.25;;
37545;SDS011;23389;52.484;13.572;2023-03-01T03:04:02;44.95;;;25.13;;
37545;SDS011;23389;52.484;13.572;2023-03-01T03:06:27;43.25;;;25.15;;
37545;SDS011;23389;52.484;13.572;2023-03-01T03:08:52;38.90;;;24.45;;
37545;SDS011;23389;52.484;13.572;2023-03-01T03:11:17;40.75;;;24.77;;
37545;SDS011;23389;52.484;13.572;2023-03-01T03:13:42;38.83;;;24.47;;
37545;SDS011;23389;52.484;13.572;2023-03-01T03:16:12;40.45;;;24.50;;
37545;SDS011;23389;52.484;13.572;2023-03-01T03:18:37;38.33;;;24.02;;
37545;SDS011;23389;52.484;13.572;2023-03-01T03:21:03;40.75;;;25.17;;
37545;SDS011;23389;52.484;13.572;2023-03-01T03:23:28;39.95;;;24.23;;
37545;SDS011;23389;52.484;13.572;2023-03-01T03:25:54;40.53;;;23.38;;
37545;SDS011;23389;52.484;13.572;2023-03-01T03:28:19;36.55;;;23.00;;
37545;SDS011;23389;52.484;13.572;2023-03-01T03:30:44;38.40;;;23.42;;
37545;SDS011;23389;52.484;13.572;2023-03-01T03:33:11;39.47;;;23.25;;
37545;SDS011;23389;52.484;13.572;2023-03-01T03:35:40;38.97;;;22.45;;
37545;SDS011;23389;52.484;13.572;2023-03-01T03:38:07;34.65;;;22.77;;
37545;SDS011;23389;52.484;13.572;2023-03-01T03:40:40;38.72;;;23.50;;
37545;SDS011;23389;52.484;13.572;2023-03-01T03:43:10;37.67;;;21.52;;
37545;SDS011;23389;52.484;13.572;2023-03-01T03:45:35;40.22;;;22.67;;
37545;SDS011;23389;52.484;13.572;2023-03-01T03:48:01;36.97;;;22.15;;
37545;SDS011;23389;52.484;13.572;2023-03-01T03:50:26;37.67;;;22.42;;
37545;SDS011;23389;52.484;13.572;2023-03-01T03:52:51;39.85;;;22.27;;
37545;SDS011;23389;52.484;13.572;2023-03-01T03:55:16;35.13;;;22.27;;
37545;SDS011;23389;52.484;13.572;2023-03-01T03:57:44;33.15;;;20.35;;
37545;SDS011;23389;52.484;13.572;2023-03-01T04:00:11;34.67;;;21.35;;
37545;SDS011;23389;52.484;13.572;2023-03-01T04:02:38;38.17;;;22.33;;
37545;SDS011;23389;52.484;13.572;2023-03-01T04:05:03;32.35;;;20.13;;
37545;SDS011;23389;52.484;13.572;2023-03-01T04:07:28;34.83;;;20.65;;
37545;SDS011;23389;52.484;13.572;2023-03-01T04:09:53;31.77;;;19.27;;
37545;SDS011;23389;52.484;13.572;2023-03-01T04:12:18;36.77;;;21.83;;
37545;SDS011;23389;52.484;13.572;2023-03-01T04:14:47;36.67;;;21.67;;
37545;SDS011;23389;52.484;13.572;2023-03-01T04:17:12;35.92;;;20.77;;
37545;SDS011;23389;52.484;13.572;2023-03-01T04:19:38;34.53;;;21.55;;
37545;SDS011;23389;52.484;13.572;2023-03-01T04:22:03;38.30;;;22.37;;
37545;SDS011;23389;52.484;13.572;2023-03-01T04:24:34;37.70;;;22.05;;
37545;SDS011;23389;52.484;13.572;2023-03-01T04:26:59;40.05;;;22.83;;
37545;SDS011;23389;52.484;13.572;2023-03-01T04:29:24;38.83;;;21.33;;
37545;SDS011;23389;52.484;13.572;2023-03-01T04:31:49;35.67;;;21.42;;
37545;SDS011;23389;52.484;13.572;2023-03-01T04:34:14;40.65;;;21.60;;
37545;SDS011;23389;52.484;13.572;2023-03-01T04:36:39;35.40;;;21.92;;
37545;SDS011;23389;52.484;13.572;2023-03-01T04:39:05;35.78;;;21.02;;
37545;SDS011;23389;52.484;13.572;2023-03-01T04:41:36;36.20;;;20.90;;
37545;SDS011;23389;52.484;13.572;2023-03-01T04:44:02;36.97;;;22.45;;
37545;SDS011;23389;52.484;13.572;2023-03-01T04:46:29;38.60;;;22.67;;
37545;SDS011;23389;52.484;13.572;2023-03-01T04:48:54;35.10;;;21.98;;
37545;SDS011;23389;52.484;13.572;2023-03-01T04:51:19;38.28;;;22.77;;
37545;SDS011;23389;52.484;13.572;2023-03-01T04:53:45;32.65;;;20.38;;
37545;SDS011;23389;52.484;13.572;2023-03-01T04:56:10;38.40;;;22.05;;
37545;SDS011;23389;52.484;13.572;2023-03-01T04:58:35;39.95;;;23.52;;
37545;SDS011;23389;52.484;13.572;2023-03-01T05:01:00;37.75;;;21.98;;
37545;SDS011;23389;52.484;13.572;2023-03-01T05:03:25;33.40;;;21.13;;
37545;SDS011;23389;52.484;13.572;2023-03-01T05:05:51;38.23;;;21.67;;
37545;SDS011;23389;52.484;13.572;2023-03-01T05:08:16;34.17;;;21.45;;
37545;SDS011;23389;52.484;13.572;2023-03-01T05:10:46;36.33;;;21.92;;
37545;SDS011;23389;52.484;13.572;2023-03-01T05:13:11;39.42;;;22.38;;
37545;SDS011;23389;52.484;13.572;2023-03-01T05:15:38;37.33;;;21.92;;
37545;SDS011;23389;52.484;13.572;2023-03-01T05:18:03;35.88;;;22.35;;
37545;SDS011;23389;52.484;13.572;2023-03-01T05:20:29;35.47;;;20.30;;
37545;SDS011;23389;52.484;13.572;2023-03-01T05:22:56;37.55;;;22.58;;
37545;SDS011;23389;52.484;13.572;2023-03-01T05:25:21;36.88;;;22.30;;
37545;SDS011;23389;52.484;13.572;2023-03-01T05:27:46;38.50;;;22.55;;
37545;SDS011;23389;52.484;13.572;2023-03-01T05:30:11;36.27;;;21.90;;
37545;SDS011;23389;52.484;13.572;2023-03-01T05:32:41;27.88;;;17.13;;
37545;SDS011;23389;52.484;13.572;2023-03-01T05:35:06;36.40;;;21.17;;
37545;SDS011;23389;52.484;13.572;2023-03-01T05:37:31;35.25;;;21.15;;
37545;SDS011;23389;52.484;13.572;2023-03-01T05:39:56;37.40;;;22.20;;
37545;SDS011;23389;52.484;13.572;2023-03-01T05:42:22;35.17;;;22.67;;
37545;SDS011;23389;52.484;13.572;2023-03-01T05:44:47;34.97;;;22.17;;
37545;SDS011;23389;52.484;13.572;2023-03-01T05:47:12;37.90;;;22.63;;
37545;SDS011;23389;52.484;13.572;2023-03-01T05:49:37;36.53;;;22.65;;
37545;SDS011;23389;52.484;13.572;2023-03-01T05:52:02;36.92;;;21.85;;
37545;SDS011;23389;52.484;13.572;2023-03-01T05:54:27;38.30;;;23.03;;
37545;SDS011;23389;52.484;13.572;2023-03-01T05:56:53;36.20;;;21.23;;
37545;SDS011;23389;52.484;13.572;2023-03-01T05:59:18;34.30;;;21.23;;
37545;SDS011;23389;52.484;13.572;2023-03-01T06:01:43;32.93;;;21.20;;
37545;SDS011;23389;52.484;13.572;2023-03-01T06:04:08;39.45;;;22.33;;
37545;SDS011;23389;52.484;13.572;2023-03-01T06:06:34;34.88;;;22.02;;
37545;SDS011;23389;52.484;13.572;2023-03-01T06:08:59;37.55;;;21.60;;
37545;SDS011;23389;52.484;13.572;2023-03-01T06:11:24;36.95;;;23.33;;
37545;SDS011;23389;52.484;13.572;2023-03-01T06:13:50;39.03;;;20.48;;
37545;SDS011;23389;52.484;13.572;2023-03-01T06:16:15;38.83;;;22.52;;
37545;SDS011;23389;52.484;13.572;2023-03-01T06:18:40;35.40;;;21.83;;
37545;SDS011;23389;52.484;13.572;2023-03-01T06:21:06;36.72;;;21.65;;
37545;SDS011;23389;52.484;13.572;2023-03-01T06:23:32;37.45;;;22.23;;
37545;SDS011;23389;52.484;13.572;2023-03-01T06:25:57;36.28;;;21.80;;
37545;SDS011;23389;52.484;13.572;2023-03-01T06:28:22;38.33;;;22.00;;
37545;SDS011;23389;52.484;13.572;2023-03-01T06:30:48;34.15;;;21.70;;
37545;SDS011;23389;52.484;13.572;2023-03-01T06:33:14;39.72;;;22.92;;
37545;SDS011;23389;52.484;13.572;2023-03-01T06:35:39;40.90;;;23.67;;
37545;SDS011;23389;52.484;13.572;2023-03-01T06:38:04;37.83;;;22.47;;
37545;SDS011;23389;52.484;13.572;2023-03-01T06:40:30;38.85;;;23.13;;
37545;SDS011;23389;52.484;13.572;2023-03-01T06:42:56;36.20;;;23.45;;
37545;SDS011;23389;52.484;13.572;2023-03-01T06:45:21;40.92;;;23.77;;
37545;SDS011;23389;52.484;13.572;2023-03-01T06:47:46;36.33;;;23.10;;
37545;SDS011;23389;52.484;13.572;2023-03-01T06:50:12;38.95;;;22.42;;
37545;SDS011;23389;52.484;13.572;2023-03-01T06:52:37;40.78;;;23.60;;
37545;SDS011;23389;52.484;13.572;2023-03-01T06:55:03;37.35;;;22.33;;
37545;SDS011;23389;52.484;13.572;2023-03-01T06:57:28;37.65;;;22.20;;
37545;SDS011;23389;52.484;13.572;2023-03-01T06:59:53;34.80;;;21.35;;
37545;SDS011;23389;52.484;13.572;2023-03-01T07:02:18;39.90;;;23.58;;
37545;SDS011;23389;52.484;13.572;2023-03-01T07:04:44;38.27;;;23.73;;
37545;SDS011;23389;52.484;13.572;2023-03-01T07:07:09;36.23;;;23.23;;
37545;SDS011;23389;52.484;13.572;2023-03-01T07:09:34;35.17;;;22.95;;
37545;SDS011;23389;52.484;13.572;2023-03-01T07:11:59;34.97;;;22.73;;
37545;SDS011;23389;52.484;13.572;2023-03-01T07:14:24;38.83;;;23.67;;
37545;SDS011;23389;52.484;13.572;2023-03-01T07:16:51;41.83;;;24.33;;
37545;SDS011;23389;52.484;13.572;2023-03-01T07:19:16;37.33;;;23.15;;
37545;SDS011;23389;52.484;13.572;2023-03-01T07:21:41;32.72;;;20.63;;
37545;SDS011;23389;52.484;13.572;2023-03-01T07:24:07;32.67;;;20.87;;
37545;SDS011;23389;52.484;13.572;2023-03-01T07:26:32;32.95;;;21.92;;
37545;SDS011;23389;52.484;13.572;2023-03-01T07:29:01;33.22;;;22.33;;
37545;SDS011;23389;52.484;13.572;2023-03-01T07:31:26;29.50;;;20.38;;
37545;SDS011;23389;52.484;13.572;2023-03-01T07:33:53;33.88;;;20.35;;
37545;SDS011;23389;52.484;13.572;2023-03-01T07:36:18;30.50;;;19.42;;
37545;SDS011;23389;52.484;13.572;2023-03-01T07:38:43;31.92;;;19.10;;
37545;SDS011;23389;52.484;13.572;2023-03-01T07:41:08;30.52;;;19.02;;
37545;SDS011;23389;52.484;13.572;2023-03-01T07:43:33;29.02;;;19.52;;
37545;SDS011;23389;52.484;13.572;2023-03-01T07:45:59;31.60;;;20.45;;
37545;SDS011;23389;52.484;13.572;2023-03-01T07:48:25;32.67;;;19.88;;
37545;SDS011;23389;52.484;13.572;2023-03-01T07:50:50;31.10;;;19.58;;
37545;SDS011;23389;52.484;13.572;2023-03-01T07:53:15;28.70;;;17.88;;
37545;SDS011;23389;52.484;13.572;2023-03-01T07:55:40;28.13;;;19.02;;
37545;SDS011;23389;52.484;13.572;2023-03-01T07:58:05;28.45;;;17.48;;
37545;SDS011;23389;52.484;13.572;2023-03-01T08:00:30;28.38;;;18.80;;
37545;SDS011;23389;52.484;13.572;2023-03-01T08:02:58;28.00;;;19.33;;
37545;SDS011;23389;52.484;13.572;2023-03-01T08:05:23;30.30;;;18.80;;
37545;SDS011;23389;52.484;13.572;2023-03-01T08:07:48;30.77;;;18.02;;
37545;SDS011;23389;52.484;13.572;2023-03-01T08:10:13;29.02;;;18.35;;
37545;SDS011;23389;52.484;13.572;2023-03-01T08:12:38;28.27;;;17.77;;
37545;SDS011;23389;52.484;13.572;2023-03-01T08:15:04;24.65;;;16.30;;
37545;SDS011;23389;52.484;13.572;2023-03-01T08:17:29;30.40;;;17.38;;
37545;SDS011;23389;52.484;13.572;2023-03-01T08:19:54;23.13;;;15.90;;
37545;SDS011;23389;52.484;13.572;2023-03-01T08:22:19;26.67;;;16.95;;
37545;SDS011;23389;52.484;13.572;2023-03-01T08:24:44;24.23;;;15.20;;
37545;SDS011;23389;52.484;13.572;2023-03-01T08:27:09;26.10;;;16.08;;
37545;SDS011;23389;52.484;13.572;2023-03-01T08:29:35;22.90;;;15.57;;
37545;SDS011;23389;52.484;13.572;2023-03-01T08:32:00;20.80;;;14.80;;
37545;SDS011;23389;52.484;13.572;2023-03-01T08:34:25;20.52;;;14.02;;
37545;SDS011;23389;52.484;13.572;2023-03-01T08:36:50;19.80;;;12.82;;
37545;SDS011;23389;52.484;13.572;2023-03-01T08:39:17;20.90;;;14.82;;
37545;SDS011;23389;52.484;13.572;2023-03-01T08:41:44;27.70;;;15.75;;
37545;SDS011;23389;52.484;13.572;2023-03-01T08:44:09;23.43;;;14.13;;
37545;SDS011;23389;52.484;13.572;2023-03-01T08:46:36;20.40;;;12.68;;
37545;SDS011;23389;52.484;13.572;2023-03-01T08:49:05;18.77;;;12.98;;
37545;SDS011;23389;52.484;13.572;2023-03-01T08:51:30;21.20;;;12.68;;
37545;SDS011;23389;52.484;13.572;2023-03-01T08:53:57;20.83;;;13.13;;
37545;SDS011;23389;52.484;13.572;2023-03-01T08:56:22;22.42;;;13.40;;
37545;SDS011;23389;52.484;13.572;2023-03-01T08:58:48;24.98;;;14.05;;
37545;SDS011;23389;52.484;13.572;2023-03-01T09:01:14;23.42;;;14.20;;
37545;SDS011;23389;52.484;13.572;2023-03-01T09:03:39;19.75;;;11.80;;
37545;SDS011;23389;52.484;13.572;2023-03-01T09:06:05;17.38;;;10.13;;
37545;SDS011;23389;52.484;13.572;2023-03-01T09:08:34;17.52;;;10.15;;
37545;SDS011;23389;52.484;13.572;2023-03-01T09:11:00;18.30;;;10.27;;
37545;SDS011;23389;52.484;13.572;2023-03-01T09:13:27;19.60;;;10.50;;
37545;SDS011;23389;52.484;13.572;2023-03-01T09:15:52;16.13;;;8.98;;
37545;SDS011;23389;52.484;13.572;2023-03-01T09:18:18;19.33;;;8.97;;
37545;SDS011;23389;52.484;13.572;2023-03-01T09:20:43;18.23;;;10.07;;
37545;SDS011;23389;52.484;13.572;2023-03-01T09:23:08;13.13;;;8.30;;
37545;SDS011;23389;52.484;13.572;2023-03-01T09:25:33;18.57;;;8.87;;
37545;SDS011;23389;52.484;13.572;2023-03-01T09:27:59;14.40;;;7.55;;
37545;SDS011;23389;52.484;13.572;2023-03-01T09:30:24;17.27;;;7.63;;
37545;SDS011;23389;52.484;13.572;2023-03-01T09:32:49;17.00;;;7.32;;
37545;SDS011;23389;52.484;13.572;2023-03-01T09:35:14;11.70;;;6.97;;
37545;SDS011;23389;52.484;13.572;2023-03-01T09:37:39;15.23;;;8.23;;
37545;SDS011;23389;52.484;13.572;2023-03-01T09:42:35;12.68;;;7.22;;
37545;SDS011;23389;52.484;13.572;2023-03-01T09:45:02;11.57;;;6.30;;
37545;SDS011;23389;52.484;13.572;2023-03-01T09:47:29;13.20;;;6.97;;
37545;SDS011;23389;52.484;13.572;2023-03-01T09:52:26;12.63;;;5.82;;
37545;SDS011;23389;52.484;13.572;2023-03-01T09:54:55;12.20;;;6.68;;
37545;SDS011;23389;52.484;13.572;2023-03-01T09:57:25;13.95;;;6.68;;
37545;SDS011;23389;52.484;13.572;2023-03-01T09:59:57;11.82;;;6.47;;
37545;SDS011;23389;52.484;13.572;2023-03-01T10:07:34;12.60;;;6.03;;
37545;SDS011;23389;52.484;13.572;2023-03-01T10:10:07;14.77;;;6.20;;
37545;SDS011;23389;52.484;13.572;2023-03-01T10:12:34;13.80;;;6.50;;
37545;SDS011;23389;52.484;13.572;2023-03-01T10:15:02;12.45;;;5.45;;
37545;SDS011;23389;52.484;13.572;2023-03-01T10:19:57;12.40;;;6.38;;
37545;SDS011;23389;52.484;13.572;2023-03-01T10:22:33;9.38;;;5.13;;
37545;SDS011;23389;52.484;13.572;2023-03-01T10:24:59;10.50;;;4.60;;
37545;SDS011;23389;52.484;13.572;2023-03-01T10:27:42;11.20;;;4.70;;
37545;SDS011;23389;52.484;13.572;2023-03-01T10:32:44;10.50;;;5.18;;
37545;SDS011;23389;52.484;13.572;2023-03-01T10:35:16;10.35;;;4.43;;
37545;SDS011;23389;52.484;13.572;2023-03-01T10:37:58;9.15;;;4.03;;
37545;SDS011;23389;52.484;13.572;2023-03-01T10:40:27;9.38;;;4.13;;
37545;SDS011;23389;52.484;13.572;2023-03-01T10:42:52;9.00;;;4.18;;
37545;SDS011;23389;52.484;13.572;2023-03-01T10:45:27;9.43;;;4.25;;
37545;SDS011;23389;52.484;13.572;2023-03-01T10:48:04;8.63;;;4.05;;
37545;SDS011;23389;52.484;13.572;2023-03-01T10:50:30;10.20;;;4.45;;
37545;SDS011;23389;52.484;13.572;2023-03-01T10:52:59;9.30;;;3.88;;
37545;SDS011;23389;52.484;13.572;2023-03-01T10:55:30;8.27;;;4.75;;
37545;SDS011;23389;52.484;13.572;2023-03-01T11:03:27;8.73;;;4.35;;
37545;SDS011;23389;52.484;13.572;2023-03-01T11:05:57;12.90;;;3.90;;
37545;SDS011;23389;52.484;13.572;2023-03-01T11:08:29;8.77;;;4.20;;
37545;SDS011;23389;52.484;13.572;2023-03-01T11:11:02;9.65;;;4.13;;
37545;SDS011;23389;52.484;13.572;2023-03-01T11:13:28;8.95;;;4.20;;
37545;SDS011;23389;52.484;13.572;2023-03-01T11:16:06;8.52;;;3.70;;
37545;SDS011;23389;52.484;13.572;2023-03-01T11:18:32;10.90;;;4.22;;
37545;SDS011;23389;52.484;13.572;2023-03-01T11:20:58;10.30;;;4.18;;
37545;SDS011;23389;52.484;13.572;2023-03-01T11:23:23;8.25;;;3.28;;
37545;SDS011;23389;52.484;13.572;2023-03-01T11:25:54;6.88;;;3.42;;
37545;SDS011;23389;52.484;13.572;2023-03-01T11:28:20;15.68;;;3.10;;
37545;SDS011;23389;52.484;13.572;2023-03-01T11:33:18;5.82;;;2.85;;
37545;SDS011;23389;52.484;13.572;2023-03-01T11:35:47;16.17;;;3.83;;
37545;SDS011;23389;52.484;13.572;2023-03-01T11:38:21;6.72;;;3.00;;
37545;SDS011;23389;52.484;13.572;2023-03-01T11:43:34;5.95;;;2.70;;
37545;SDS011;23389;52.484;13.572;2023-03-01T11:51:45;4.93;;;1.83;;
37545;SDS011;23389;52.484;13.572;2023-03-01T11:54:18;7.57;;;2.40;;
37545;SDS011;23389;52.484;13.572;2023-03-01T11:56:47;5.65;;;2.30;;
37545;SDS011;23389;52.484;13.572;2023-03-01T11:59:33;5.90;;;2.53;;
37545;SDS011;23389;52.484;13.572;2023-03-01T12:07:14;6.15;;;2.45;;
37545;SDS011;23389;52.484;13.572;2023-03-01T12:09:54;8.15;;;2.83;;
37545;SDS011;23389;52.484;13.572;2023-03-01T12:14:55;5.40;;;1.85;;
37545;SDS011;23389;52.484;13.572;2023-03-01T12:17:31;4.88;;;2.08;;
37545;SDS011;23389;52.484;13.572;2023-03-01T12:20:12;7.47;;;2.50;;
37545;SDS011;23389;52.484;13.572;2023-03-01T12:25:28;6.57;;;2.13;;
37545;SDS011;23389;52.484;13.572;2023-03-01T12:33:14;5.90;;;2.50;;
37545;SDS011;23389;52.484;13.572;2023-03-01T12:38:33;8.23;;;2.80;;
37545;SDS011;23389;52.484;13.572;2023-03-01T12:43:47;5.43;;;2.35;;
37545;SDS011;23389;52.484;13.572;2023-03-01T12:48:58;8.48;;;2.67;;
37545;SDS011;23389;52.484;13.572;2023-03-01T12:51:24;6.43;;;2.08;;
37545;SDS011;23389;52.484;13.572;2023-03-01T12:53:51;6.30;;;2.20;;
37545;SDS011;23389;52.484;13.572;2023-03-01T12:56:19;5.30;;;1.90;;
37545;SDS011;23389;52.484;13.572;2023-03-01T12:58:55;4.28;;;1.75;;
37545;SDS011;23389;52.484;13.572;2023-03-01T13:09:18;4.80;;;2.03;;
37545;SDS011;23389;52.484;13.572;2023-03-01T13:11:44;5.35;;;2.08;;
37545;SDS011;23389;52.484;13.572;2023-03-01T13:16:50;5.07;;;2.40;;
37545;SDS011;23389;52.484;13.572;2023-03-01T13:21:41;15.40;;;3.17;;
37545;SDS011;23389;52.484;13.572;2023-03-01T13:32:18;6.80;;;3.13;;
37545;SDS011;23389;52.484;13.572;2023-03-01T13:34:45;6.85;;;2.80;;
37545;SDS011;23389;52.484;13.572;2023-03-01T13:37:13;7.25;;;2.65;;
37545;SDS011;23389;52.484;13.572;2023-03-01T13:39:43;5.60;;;2.63;;
37545;SDS011;23389;52.484;13.572;2023-03-01T13:42:28;7.20;;;2.90;;
37545;SDS011;23389;52.484;13.572;2023-03-01T13:44:53;7.80;;;3.00;;
37545;SDS011;23389;52.484;13.572;2023-03-01T13:47:19;6.27;;;2.70;;
37545;SDS011;23389;52.484;13.572;2023-03-01T13:49:55;5.38;;;2.75;;
37545;SDS011;23389;52.484;13.572;2023-03-01T13:52:30;4.85;;;1.90;;
37545;SDS011;23389;52.484;13.572;2023-03-01T13:54:56;8.60;;;2.60;;
37545;SDS011;23389;52.484;13.572;2023-03-01T13:57:23;4.93;;;2.15;;
37545;SDS011;23389;52.484;13.572;2023-03-01T13:59:49;6.55;;;2.33;;
37545;SDS011;23389;52.484;13.572;2023-03-01T14:02:14;5.07;;;2.20;;
37545;SDS011;23389;52.484;13.572;2023-03-01T14:04:40;4.22;;;2.20;;
37545;SDS011;23389;52.484;13.572;2023-03-01T14:07:18;4.53;;;2.20;;
37545;SDS011;23389;52.484;13.572;2023-03-01T14:09:44;5.30;;;2.15;;
37545;SDS011;23389;52.484;13.572;2023-03-01T14:12:13;9.32;;;3.40;;
37545;SDS011;23389;52.484;13.572;2023-03-01T14:14:42;6.55;;;2.97;;
37545;SDS011;23389;52.484;13.572;2023-03-01T14:17:12;5.20;;;2.65;;
37545;SDS011;23389;52.484;13.572;2023-03-01T14:19:42;6.65;;;2.28;;
37545;SDS011;23389;52.484;13.572;2023-03-01T14:22:16;6.30;;;2.40;;
37545;SDS011;23389;52.484;13.572;2023-03-01T14:24:53;6.10;;;2.13;;
37545;SDS011;23389;52.484;13.572;2023-03-01T14:27:19;4.60;;;2.35;;
37545;SDS011;23389;52.484;13.572;2023-03-01T14:29:54;9.18;;;2.55;;
37545;SDS011;23389;52.484;13.572;2023-03-01T14:32:20;6.85;;;1.95;;
37545;SDS011;23389;52.484;13.572;2023-03-01T14:34:49;5.35;;;2.17;;
37545;SDS011;23389;52.484;13.572;2023-03-01T14:37:23;7.97;;;2.50;;
37545;SDS011;23389;52.484;13.572;2023-03-01T14:39:49;6.03;;;2.08;;
37545;SDS011;23389;52.484;13.572;2023-03-01T14:42:14;5.50;;;1.88;;
37545;SDS011;23389;52.484;13.572;2023-03-01T14:44:40;6.22;;;2.30;;
37545;SDS011;23389;52.484;13.572;2023-03-01T14:47:10;4.43;;;1.77;;
37545;SDS011;23389;52.484;13.572;2023-03-01T14:49:35;3.97;;;1.60;;
37545;SDS011;23389;52.484;13.572;2023-03-01T14:52:04;4.10;;;1.80;;
37545;SDS011;23389;52.484;13.572;2023-03-01T14:54:37;6.88;;;2.30;;
37545;SDS011;23389;52.484;13.572;2023-03-01T14:57:05;4.38;;;1.90;;
37545;SDS011;23389;52.484;13.572;2023-03-01T14:59:30;6.25;;;1.75;;
37545;SDS011;23389;52.484;13.572;2023-03-01T15:01:57;3.60;;;1.75;;
37545;SDS011;23389;52.484;13.572;2023-03-01T15:04:23;3.78;;;1.80;;
37545;SDS011;23389;52.484;13.572;2023-03-01T15:06:52;5.68;;;2.10;;
37545;SDS011;23389;52.484;13.572;2023-03-01T15:09:19;3.72;;;1.73;;
37545;SDS011;23389;52.484;13.572;2023-03-01T15:11:45;6.55;;;2.10;;
37545;SDS011;23389;52.484;13.572;2023-03-01T15:14:24;4.30;;;1.70;;
37545;SDS011;23389;52.484;13.572;2023-03-01T15:19:15;4.82;;;1.65;;
37545;SDS011;23389;52.484;13.572;2023-03-01T15:21:43;3.95;;;1.90;;
37545;SDS011;23389;52.484;13.572;2023-03-01T15:26:44;6.80;;;2.53;;
37545;SDS011;23389;52.484;13.572;2023-03-01T15:29:15;5.70;;;1.92;;
37545;SDS011;23389;52.484;13.572;2023-03-01T15:31:41;3.95;;;1.45;;
37545;SDS011;23389;52.484;13.572;2023-03-01T15:34:08;5.45;;;1.80;;
37545;SDS011;23389;52.484;13.572;2023-03-01T15:38:58;4.30;;;1.90;;
37545;SDS011;23389;52.484;13.572;2023-03-01T15:43:50;4.90;;;2.10;;
37545;SDS011;23389;52.484;13.572;2023-03-01T15:46:29;5.00;;;2.17;;
37545;SDS011;23389;52.484;13.572;2023-03-01T15:48:57;4.68;;;1.80;;